sensor_id;sensor_type;location;lat;lon;timestamp;temperature;humidity
23801;DHT22;12081;48.614;10.226;2023-11-21T00:02:39;5.80;99.90
23801;DHT22;12081;48.614;10.226;2023-11-21T00:05:25;5.70;99.90
23801;DHT22;12081;48.614;10.226;2023-11-21T00:08:08;5.70;99.90
23801;DHT22;12081;48.614;10.226;2023-11-21T00:10:53;5.70;99.90
23801;DHT22;12081;48.614;10.226;2023-11-21T00:13:38;5.70;99.90
23801;DHT22;12081;48.614;10.226;2023-11-21T00:16:24;5.70;99.90
23801;DHT22;12081;48.614;10.226;2023-11-21T00:19:09;5.80;99.90
23801;DHT22;12081;48.614;10.226;2023-11-21T00:21:53;5.90;99.90
23801;DHT22;12081;48.614;10.226;2023-11-21T00:24:37;5.90;99.90
23801;DHT22;12081;48.614;10.226;2023-11-21T00:27:21;5.90;99.90
23801;DHT22;12081;48.614;10.226;2023-11-21T00:30:06;5.90;99.90
23801;DHT22;12081;48.614;10.226;2023-11-21T00:32:51;5.90;99.90
23801;DHT22;12081;48.614;10.226;2023-11-21T00:35:35;5.90;99.90
23801;DHT22;12081;48.614;10.226;2023-11-21T00:38:19;5.90;99.90
23801;DHT22;12081;48.614;10.226;2023-11-21T00:41:03;5.90;99.90
23801;DHT22;12081;48.614;10.226;2023-11-21T00:43:47;5.90;99.90
23801;DHT22;12081;48.614;10.226;2023-11-21T00:46:31;5.90;99.90
23801;DHT22;12081;48.614;10.226;2023-11-21T00:49:16;5.90;99.90
23801;DHT22;12081;48.614;10.226;2023-11-21T00:52:00;5.90;99.90
23801;DHT22;12081;48.614;10.226;2023-11-21T00:54:44;5.90;99.90
23801;DHT22;12081;48.614;10.226;2023-11-21T00:57:29;5.90;99.90
23801;DHT22;12081;48.614;10.226;2023-11-21T01:00:13;5.90;99.90
23801;DHT22;12081;48.614;10.226;2023-11-21T01:03:00;5.90;99.90
23801;DHT22;12081;48.614;10.226;2023-11-21T01:05:45;5.90;99.90
23801;DHT22;12081;48.614;10.226;2023-11-21T01:08:29;5.80;99.90
23801;DHT22;12081;48.614;10.226;2023-11-21T01:11:15;5.80;99.90
23801;DHT22;12081;48.614;10.226;2023-11-21T01:13:59;6.00;99.90
23801;DHT22;12081;48.614;10.226;2023-11-21T01:16:43;5.80;99.90
23801;DHT22;12081;48.614;10.226;2023-11-21T01:19:27;5.80;99.90
23801;DHT22;12081;48.614;10.226;2023-11-21T01:22:12;5.70;99.90
23801;DHT22;12081;48.614;10.226;2023-11-21T01:24:56;5.70;99.90
23801;DHT22;12081;48.614;10.226;2023-11-21T01:27:42;5.70;99.90
23801;DHT22;12081;48.614;10.226;2023-11-21T01:30:27;5.60;99.90
23801;DHT22;12081;48.614;10.226;2023-11-21T01:33:11;5.50;99.90
23801;DHT22;12081;48.614;10.226;2023-11-21T01:35:55;5.50;99.90
23801;DHT22;12081;48.614;10.226;2023-11-21T01:38:40;5.50;99.90
23801;DHT22;12081;48.614;10.226;2023-11-21T01:41:24;5.50;99.90
23801;DHT22;12081;48.614;10.226;2023-11-21T01:44:10;5.50;99.90
23801;DHT22;12081;48.614;10.226;2023-11-21T01:46:54;5.50;99.90
23801;DHT22;12081;48.614;10.226;2023-11-21T01:49:43;5.40;99.90
23801;DHT22;12081;48.614;10.226;2023-11-21T01:52:28;5.50;99.90
23801;DHT22;12081;48.614;10.226;2023-11-21T01:55:15;5.50;99.90
23801;DHT22;12081;48.614;10.226;2023-11-21T01:58:02;5.70;99.90
23801;DHT22;12081;48.614;10.226;2023-11-21T02:00:47;5.50;99.90
23801;DHT22;12081;48.614;10.226;2023-11-21T02:03:35;5.50;99.90
23801;DHT22;12081;48.614;10.226;2023-11-21T02:06:19;5.50;99.90
23801;DHT22;12081;48.614;10.226;2023-11-21T02:09:03;5.60;99.90
23801;DHT22;12081;48.614;10.226;2023-11-21T02:11:48;5.60;99.90
23801;DHT22;12081;48.614;10.226;2023-11-21T02:14:33;5.60;99.90
23801;DHT22;12081;48.614;10.226;2023-11-21T02:17:17;5.60;99.90
23801;DHT22;12081;48.614;10.226;2023-11-21T02:20:02;5.60;99.90
23801;DHT22;12081;48.614;10.226;2023-11-21T02:22:51;5.60;99.90
23801;DHT22;12081;48.614;10.226;2023-11-21T02:25:44;6.50;99.90
23801;DHT22;12081;48.614;10.226;2023-11-21T02:28:28;5.60;99.90
23801;DHT22;12081;48.614;10.226;2023-11-21T02:31:12;5.60;99.90
23801;DHT22;12081;48.614;10.226;2023-11-21T02:33:56;5.60;99.90
23801;DHT22;12081;48.614;10.226;2023-11-21T02:36:41;5.60;99.90
23801;DHT22;12081;48.614;10.226;2023-11-21T02:39:26;5.60;99.90
23801;DHT22;12081;48.614;10.226;2023-11-21T02:42:10;5.50;99.90
23801;DHT22;12081;48.614;10.226;2023-11-21T02:44:54;5.50;99.90
23801;DHT22;12081;48.614;10.226;2023-11-21T02:47:39;5.40;99.90
23801;DHT22;12081;48.614;10.226;2023-11-21T02:50:23;5.40;99.90
23801;DHT22;12081;48.614;10.226;2023-11-21T02:53:07;5.30;99.90
23801;DHT22;12081;48.614;10.226;2023-11-21T02:55:51;5.30;99.90
23801;DHT22;12081;48.614;10.226;2023-11-21T02:58:36;5.20;99.90
23801;DHT22;12081;48.614;10.226;2023-11-21T03:01:19;5.30;99.90
23801;DHT22;12081;48.614;10.226;2023-11-21T03:04:04;6.90;99.90
23801;DHT22;12081;48.614;10.226;2023-11-21T03:06:48;5.40;99.90
23801;DHT22;12081;48.614;10.226;2023-11-21T03:09:32;5.50;99.90
23801;DHT22;12081;48.614;10.226;2023-11-21T03:12:16;5.40;99.90
23801;DHT22;12081;48.614;10.226;2023-11-21T03:15:00;5.50;99.90
23801;DHT22;12081;48.614;10.226;2023-11-21T03:17:45;5.50;99.90
23801;DHT22;12081;48.614;10.226;2023-11-21T03:20:29;5.50;99.90
23801;DHT22;12081;48.614;10.226;2023-11-21T03:23:13;5.50;99.90
23801;DHT22;12081;48.614;10.226;2023-11-21T03:25:57;5.50;99.90
23801;DHT22;12081;48.614;10.226;2023-11-21T03:28:43;5.50;99.90
23801;DHT22;12081;48.614;10.226;2023-11-21T06:31:38;5.50;99.90
23801;DHT22;12081;48.614;10.226;2023-11-21T06:34:22;5.50;99.90
23801;DHT22;12081;48.614;10.226;2023-11-21T06:37:06;5.40;99.90
23801;DHT22;12081;48.614;10.226;2023-11-21T06:39:50;5.30;99.90
23801;DHT22;12081;48.614;10.226;2023-11-21T06:42:36;5.30;99.90
23801;DHT22;12081;48.614;10.226;2023-11-21T06:45:22;5.30;99.90
23801;DHT22;12081;48.614;10.226;2023-11-21T06:48:06;5.20;99.90
23801;DHT22;12081;48.614;10.226;2023-11-21T06:50:50;5.20;99.90
23801;DHT22;12081;48.614;10.226;2023-11-21T06:53:37;5.20;99.90
23801;DHT22;12081;48.614;10.226;2023-11-21T06:56:21;5.20;99.90
23801;DHT22;12081;48.614;10.226;2023-11-21T06:59:05;5.20;99.90
23801;DHT22;12081;48.614;10.226;2023-11-21T07:01:50;5.30;99.90
23801;DHT22;12081;48.614;10.226;2023-11-21T07:04:35;5.40;99.90
23801;DHT22;12081;48.614;10.226;2023-11-21T07:07:20;5.40;99.90
23801;DHT22;12081;48.614;10.226;2023-11-21T07:10:04;5.50;99.90
23801;DHT22;12081;48.614;10.226;2023-11-21T07:12:49;5.50;99.90
23801;DHT22;12081;48.614;10.226;2023-11-21T07:15:35;5.60;99.90
23801;DHT22;12081;48.614;10.226;2023-11-21T07:18:19;5.60;99.90
23801;DHT22;12081;48.614;10.226;2023-11-21T07:21:03;5.70;99.90
23801;DHT22;12081;48.614;10.226;2023-11-21T07:23:48;5.70;99.90
23801;DHT22;12081;48.614;10.226;2023-11-21T07:26:32;5.90;99.90
23801;DHT22;12081;48.614;10.226;2023-11-21T07:29:20;6.00;99.90
23801;DHT22;12081;48.614;10.226;2023-11-21T07:32:04;6.10;99.90
23801;DHT22;12081;48.614;10.226;2023-11-21T07:34:48;6.10;99.90
23801;DHT22;12081;48.614;10.226;2023-11-21T07:37:32;6.10;99.90
23801;DHT22;12081;48.614;10.226;2023-11-21T07:40:16;6.10;99.90
23801;DHT22;12081;48.614;10.226;2023-11-21T07:43:00;6.10;99.90
23801;DHT22;12081;48.614;10.226;2023-11-21T07:45:45;6.00;99.90
23801;DHT22;12081;48.614;10.226;2023-11-21T07:48:30;6.00;99.90
23801;DHT22;12081;48.614;10.226;2023-11-21T07:51:16;7.40;99.90
23801;DHT22;12081;48.614;10.226;2023-11-21T07:54:00;6.00;99.90
23801;DHT22;12081;48.614;10.226;2023-11-21T07:56:44;6.40;99.90
23801;DHT22;12081;48.614;10.226;2023-11-21T07:59:29;7.10;99.90
23801;DHT22;12081;48.614;10.226;2023-11-21T08:02:12;7.80;99.90
23801;DHT22;12081;48.614;10.226;2023-11-21T08:04:56;9.40;99.90
23801;DHT22;12081;48.614;10.226;2023-11-21T08:07:40;10.00;99.90
23801;DHT22;12081;48.614;10.226;2023-11-21T08:10:24;11.20;99.90
23801;DHT22;12081;48.614;10.226;2023-11-21T08:13:09;12.30;99.90
23801;DHT22;12081;48.614;10.226;2023-11-21T08:15:58;11.70;99.90
23801;DHT22;12081;48.614;10.226;2023-11-21T08:18:46;11.50;99.90
23801;DHT22;12081;48.614;10.226;2023-11-21T08:21:30;11.20;99.90
23801;DHT22;12081;48.614;10.226;2023-11-21T08:24:15;11.50;99.90
23801;DHT22;12081;48.614;10.226;2023-11-21T08:27:00;10.30;99.90
23801;DHT22;12081;48.614;10.226;2023-11-21T08:29:44;10.20;99.90
23801;DHT22;12081;48.614;10.226;2023-11-21T08:32:29;10.80;99.90
23801;DHT22;12081;48.614;10.226;2023-11-21T08:35:17;9.90;99.90
23801;DHT22;12081;48.614;10.226;2023-11-21T08:38:03;9.70;99.90
23801;DHT22;12081;48.614;10.226;2023-11-21T08:40:47;9.50;99.90
23801;DHT22;12081;48.614;10.226;2023-11-21T08:43:31;9.60;99.90
23801;DHT22;12081;48.614;10.226;2023-11-21T08:46:15;9.70;99.90
23801;DHT22;12081;48.614;10.226;2023-11-21T08:49:01;10.10;99.90
23801;DHT22;12081;48.614;10.226;2023-11-21T08:51:46;10.30;99.90
23801;DHT22;12081;48.614;10.226;2023-11-21T08:54:30;10.50;99.90
23801;DHT22;12081;48.614;10.226;2023-11-21T08:57:15;10.50;99.90
23801;DHT22;12081;48.614;10.226;2023-11-21T08:59:59;10.60;99.90
23801;DHT22;12081;48.614;10.226;2023-11-21T09:02:44;10.90;99.90
23801;DHT22;12081;48.614;10.226;2023-11-21T09:05:28;10.50;99.90
23801;DHT22;12081;48.614;10.226;2023-11-21T09:08:12;10.40;99.90
23801;DHT22;12081;48.614;10.226;2023-11-21T09:10:58;10.50;99.90
23801;DHT22;12081;48.614;10.226;2023-11-21T09:13:42;10.70;99.90
23801;DHT22;12081;48.614;10.226;2023-11-21T09:16:26;11.40;99.90
23801;DHT22;12081;48.614;10.226;2023-11-21T09:19:10;11.30;99.90
23801;DHT22;12081;48.614;10.226;2023-11-21T09:21:55;11.30;99.90
23801;DHT22;12081;48.614;10.226;2023-11-21T09:24:41;11.40;99.90
23801;DHT22;12081;48.614;10.226;2023-11-21T09:27:26;11.10;99.90
23801;DHT22;12081;48.614;10.226;2023-11-21T09:30:10;11.00;99.90
23801;DHT22;12081;48.614;10.226;2023-11-21T09:32:55;10.90;99.90
23801;DHT22;12081;48.614;10.226;2023-11-21T09:35:39;12.20;99.90
23801;DHT22;12081;48.614;10.226;2023-11-21T09:38:23;12.70;99.90
23801;DHT22;12081;48.614;10.226;2023-11-21T09:41:37;11.30;99.90
23801;DHT22;12081;48.614;10.226;2023-11-21T09:44:45;11.80;99.90
23801;DHT22;12081;48.614;10.226;2023-11-21T09:47:32;13.10;99.90
23801;DHT22;12081;48.614;10.226;2023-11-21T09:50:20;12.20;99.90
23801;DHT22;12081;48.614;10.226;2023-11-21T09:53:13;13.00;99.90
23801;DHT22;12081;48.614;10.226;2023-11-21T09:56:02;12.20;99.90
23801;DHT22;12081;48.614;10.226;2023-11-21T09:58:46;12.30;99.90
23801;DHT22;12081;48.614;10.226;2023-11-21T10:01:31;12.40;99.90
23801;DHT22;12081;48.614;10.226;2023-11-21T10:04:16;12.60;99.90
23801;DHT22;12081;48.614;10.226;2023-11-21T10:07:01;12.20;99.90
23801;DHT22;12081;48.614;10.226;2023-11-21T10:09:47;12.20;99.90
23801;DHT22;12081;48.614;10.226;2023-11-21T10:12:32;11.90;99.90
23801;DHT22;12081;48.614;10.226;2023-11-21T10:15:17;11.50;99.90
23801;DHT22;12081;48.614;10.226;2023-11-21T10:18:04;11.20;99.90
23801;DHT22;12081;48.614;10.226;2023-11-21T10:20:49;11.10;99.90
23801;DHT22;12081;48.614;10.226;2023-11-21T10:23:37;10.90;99.90
23801;DHT22;12081;48.614;10.226;2023-11-21T10:26:22;11.00;99.90
23801;DHT22;12081;48.614;10.226;2023-11-21T10:29:07;12.80;99.90
23801;DHT22;12081;48.614;10.226;2023-11-21T10:31:52;12.80;99.90
23801;DHT22;12081;48.614;10.226;2023-11-21T10:34:38;11.00;99.90
23801;DHT22;12081;48.614;10.226;2023-11-21T10:37:25;11.00;99.90
23801;DHT22;12081;48.614;10.226;2023-11-21T10:40:10;12.10;99.90
23801;DHT22;12081;48.614;10.226;2023-11-21T10:43:06;11.10;99.90
23801;DHT22;12081;48.614;10.226;2023-11-21T10:45:52;11.10;99.90
23801;DHT22;12081;48.614;10.226;2023-11-21T10:48:36;11.50;99.90
23801;DHT22;12081;48.614;10.226;2023-11-21T10:51:22;11.30;99.90
23801;DHT22;12081;48.614;10.226;2023-11-21T10:54:08;11.50;99.90
23801;DHT22;12081;48.614;10.226;2023-11-21T10:57:00;11.70;99.90
23801;DHT22;12081;48.614;10.226;2023-11-21T10:59:47;12.40;99.90
23801;DHT22;12081;48.614;10.226;2023-11-21T11:02:35;11.90;99.90
23801;DHT22;12081;48.614;10.226;2023-11-21T11:05:20;11.80;99.90
23801;DHT22;12081;48.614;10.226;2023-11-21T11:08:06;12.60;99.90
23801;DHT22;12081;48.614;10.226;2023-11-21T11:10:52;12.10;99.90
23801;DHT22;12081;48.614;10.226;2023-11-21T11:13:37;12.40;99.90
23801;DHT22;12081;48.614;10.226;2023-11-21T11:16:23;13.10;99.90
23801;DHT22;12081;48.614;10.226;2023-11-21T11:19:09;13.00;99.90
23801;DHT22;12081;48.614;10.226;2023-11-21T11:28:27;13.60;99.90
23801;DHT22;12081;48.614;10.226;2023-11-21T11:32:00;14.10;99.90
23801;DHT22;12081;48.614;10.226;2023-11-21T11:34:28;14.90;99.90
23801;DHT22;12081;48.614;10.226;2023-11-21T11:37:14;13.70;99.90
23801;DHT22;12081;48.614;10.226;2023-11-21T11:39:59;13.80;99.90
23801;DHT22;12081;48.614;10.226;2023-11-21T11:43:01;13.70;99.90
23801;DHT22;12081;48.614;10.226;2023-11-21T11:45:48;13.00;99.90
23801;DHT22;12081;48.614;10.226;2023-11-21T11:48:39;12.90;99.90
23801;DHT22;12081;48.614;10.226;2023-11-21T11:51:23;12.80;99.90
23801;DHT22;12081;48.614;10.226;2023-11-21T11:54:07;12.40;99.90
23801;DHT22;12081;48.614;10.226;2023-11-21T11:56:52;12.00;99.90
23801;DHT22;12081;48.614;10.226;2023-11-21T12:00:12;12.50;99.90
23801;DHT22;12081;48.614;10.226;2023-11-21T12:03:09;11.50;99.90
23801;DHT22;12081;48.614;10.226;2023-11-21T12:05:53;11.40;99.90
23801;DHT22;12081;48.614;10.226;2023-11-21T12:08:43;11.40;99.90
23801;DHT22;12081;48.614;10.226;2023-11-21T12:11:32;11.20;99.90
23801;DHT22;12081;48.614;10.226;2023-11-21T12:14:17;11.00;99.90
23801;DHT22;12081;48.614;10.226;2023-11-21T12:17:02;11.30;99.90
23801;DHT22;12081;48.614;10.226;2023-11-21T12:19:48;10.90;99.90
23801;DHT22;12081;48.614;10.226;2023-11-21T12:22:32;12.20;99.90
23801;DHT22;12081;48.614;10.226;2023-11-21T12:25:25;10.80;99.90
23801;DHT22;12081;48.614;10.226;2023-11-21T12:28:12;10.60;99.90
23801;DHT22;12081;48.614;10.226;2023-11-21T12:30:57;10.50;99.90
23801;DHT22;12081;48.614;10.226;2023-11-21T12:33:42;11.70;99.90
23801;DHT22;12081;48.614;10.226;2023-11-21T12:36:26;10.40;99.90
23801;DHT22;12081;48.614;10.226;2023-11-21T12:39:13;10.50;99.90
23801;DHT22;12081;48.614;10.226;2023-11-21T12:41:58;10.50;99.90
23801;DHT22;12081;48.614;10.226;2023-11-21T12:44:42;10.30;99.90
23801;DHT22;12081;48.614;10.226;2023-11-21T12:47:29;11.80;99.90
23801;DHT22;12081;48.614;10.226;2023-11-21T12:50:13;10.70;99.90
23801;DHT22;12081;48.614;10.226;2023-11-21T12:53:01;11.50;99.90
23801;DHT22;12081;48.614;10.226;2023-11-21T12:55:46;13.90;99.90
23801;DHT22;12081;48.614;10.226;2023-11-21T12:58:34;13.00;99.90
23801;DHT22;12081;48.614;10.226;2023-11-21T13:01:19;14.10;99.90
23801;DHT22;12081;48.614;10.226;2023-11-21T13:04:07;14.90;99.90
23801;DHT22;12081;48.614;10.226;2023-11-21T13:06:54;16.10;99.90
23801;DHT22;12081;48.614;10.226;2023-11-21T13:09:40;16.80;99.90
23801;DHT22;12081;48.614;10.226;2023-11-21T13:12:24;16.20;99.90
23801;DHT22;12081;48.614;10.226;2023-11-21T13:15:09;15.70;99.90
23801;DHT22;12081;48.614;10.226;2023-11-21T13:17:54;15.00;99.90
23801;DHT22;12081;48.614;10.226;2023-11-21T13:20:40;14.10;99.90
23801;DHT22;12081;48.614;10.226;2023-11-21T13:23:26;13.60;99.90
23801;DHT22;12081;48.614;10.226;2023-11-21T13:26:10;12.50;99.90
23801;DHT22;12081;48.614;10.226;2023-11-21T13:28:55;12.00;99.90
23801;DHT22;12081;48.614;10.226;2023-11-21T13:31:40;11.50;99.90
23801;DHT22;12081;48.614;10.226;2023-11-21T13:34:25;11.20;99.90
23801;DHT22;12081;48.614;10.226;2023-11-21T13:37:11;11.10;99.90
23801;DHT22;12081;48.614;10.226;2023-11-21T13:39:56;11.50;99.90
23801;DHT22;12081;48.614;10.226;2023-11-21T13:42:42;11.90;99.90
23801;DHT22;12081;48.614;10.226;2023-11-21T13:45:27;13.30;99.90
23801;DHT22;12081;48.614;10.226;2023-11-21T13:48:12;13.10;99.90
23801;DHT22;12081;48.614;10.226;2023-11-21T13:51:04;12.90;99.90
23801;DHT22;12081;48.614;10.226;2023-11-21T13:54:01;12.70;99.90
23801;DHT22;12081;48.614;10.226;2023-11-21T13:56:46;12.30;99.90
23801;DHT22;12081;48.614;10.226;2023-11-21T13:59:30;12.30;99.90
23801;DHT22;12081;48.614;10.226;2023-11-21T14:02:15;12.80;99.90
23801;DHT22;12081;48.614;10.226;2023-11-21T14:05:03;12.80;99.90
23801;DHT22;12081;48.614;10.226;2023-11-21T14:07:53;11.80;99.90
23801;DHT22;12081;48.614;10.226;2023-11-21T14:10:37;11.90;99.90
23801;DHT22;12081;48.614;10.226;2023-11-21T14:13:26;11.90;99.90
23801;DHT22;12081;48.614;10.226;2023-11-21T14:16:11;12.80;99.90
23801;DHT22;12081;48.614;10.226;2023-11-21T14:18:55;11.00;99.90
23801;DHT22;12081;48.614;10.226;2023-11-21T14:21:46;10.70;99.90
23801;DHT22;12081;48.614;10.226;2023-11-21T14:24:30;10.50;99.90
23801;DHT22;12081;48.614;10.226;2023-11-21T14:27:14;10.40;99.90
23801;DHT22;12081;48.614;10.226;2023-11-21T14:29:58;10.80;99.90
23801;DHT22;12081;48.614;10.226;2023-11-21T14:32:43;10.20;99.90
23801;DHT22;12081;48.614;10.226;2023-11-21T14:35:27;11.50;99.90
23801;DHT22;12081;48.614;10.226;2023-11-21T14:38:12;9.90;99.90
23801;DHT22;12081;48.614;10.226;2023-11-21T14:40:58;9.70;99.90
23801;DHT22;12081;48.614;10.226;2023-11-21T14:43:42;10.20;99.90
23801;DHT22;12081;48.614;10.226;2023-11-21T14:46:29;9.60;99.90
23801;DHT22;12081;48.614;10.226;2023-11-21T14:49:14;9.20;99.90
23801;DHT22;12081;48.614;10.226;2023-11-21T14:52:04;9.10;99.90
23801;DHT22;12081;48.614;10.226;2023-11-21T14:54:52;9.00;99.90
23801;DHT22;12081;48.614;10.226;2023-11-21T14:57:49;8.90;99.90
23801;DHT22;12081;48.614;10.226;2023-11-21T15:00:35;8.70;99.90
23801;DHT22;12081;48.614;10.226;2023-11-21T15:03:19;8.60;99.90
23801;DHT22;12081;48.614;10.226;2023-11-21T15:06:16;8.40;99.90
23801;DHT22;12081;48.614;10.226;2023-11-21T15:09:04;8.50;99.90
23801;DHT22;12081;48.614;10.226;2023-11-21T15:11:51;8.20;99.90
23801;DHT22;12081;48.614;10.226;2023-11-21T15:14:48;8.10;99.90
23801;DHT22;12081;48.614;10.226;2023-11-21T15:17:36;8.00;99.90
23801;DHT22;12081;48.614;10.226;2023-11-21T15:20:20;7.90;99.90
23801;DHT22;12081;48.614;10.226;2023-11-21T15:23:06;7.80;99.90
23801;DHT22;12081;48.614;10.226;2023-11-21T15:25:50;7.80;99.90
23801;DHT22;12081;48.614;10.226;2023-11-21T15:28:35;7.70;99.90
23801;DHT22;12081;48.614;10.226;2023-11-21T15:31:19;7.60;99.90
23801;DHT22;12081;48.614;10.226;2023-11-21T15:34:08;7.60;99.90
23801;DHT22;12081;48.614;10.226;2023-11-21T15:36:53;7.50;99.90
23801;DHT22;12081;48.614;10.226;2023-11-21T15:39:39;7.50;99.90
23801;DHT22;12081;48.614;10.226;2023-11-21T15:42:23;7.40;99.90
23801;DHT22;12081;48.614;10.226;2023-11-21T15:45:08;7.40;99.90
23801;DHT22;12081;48.614;10.226;2023-11-21T15:47:52;7.40;99.90
23801;DHT22;12081;48.614;10.226;2023-11-21T15:50:41;7.30;99.90
23801;DHT22;12081;48.614;10.226;2023-11-21T15:53:25;7.30;99.90
23801;DHT22;12081;48.614;10.226;2023-11-21T15:56:10;7.30;99.90
23801;DHT22;12081;48.614;10.226;2023-11-21T15:58:56;7.30;99.90
23801;DHT22;12081;48.614;10.226;2023-11-21T16:01:40;7.20;99.90
23801;DHT22;12081;48.614;10.226;2023-11-21T16:04:27;7.20;99.90
23801;DHT22;12081;48.614;10.226;2023-11-21T16:07:12;7.20;99.90
23801;DHT22;12081;48.614;10.226;2023-11-21T16:09:56;7.40;99.90
23801;DHT22;12081;48.614;10.226;2023-11-21T16:12:42;7.10;99.90
23801;DHT22;12081;48.614;10.226;2023-11-21T16:15:26;7.10;99.90
23801;DHT22;12081;48.614;10.226;2023-11-21T16:18:11;7.00;99.90
23801;DHT22;12081;48.614;10.226;2023-11-21T16:20:55;7.00;99.90
23801;DHT22;12081;48.614;10.226;2023-11-21T16:23:39;7.00;99.90
23801;DHT22;12081;48.614;10.226;2023-11-21T16:26:23;7.30;99.90
23801;DHT22;12081;48.614;10.226;2023-11-21T16:29:07;6.90;99.90
23801;DHT22;12081;48.614;10.226;2023-11-21T16:31:52;6.90;99.90
23801;DHT22;12081;48.614;10.226;2023-11-21T16:34:38;7.00;99.90
23801;DHT22;12081;48.614;10.226;2023-11-21T16:37:24;7.00;99.90
23801;DHT22;12081;48.614;10.226;2023-11-21T16:40:08;7.00;99.90
23801;DHT22;12081;48.614;10.226;2023-11-21T16:42:53;7.00;99.90
23801;DHT22;12081;48.614;10.226;2023-11-21T16:45:37;7.10;99.90
23801;DHT22;12081;48.614;10.226;2023-11-21T16:48:21;7.40;99.90
23801;DHT22;12081;48.614;10.226;2023-11-21T16:51:05;7.10;99.90
23801;DHT22;12081;48.614;10.226;2023-11-21T16:53:49;7.10;99.90
23801;DHT22;12081;48.614;10.226;2023-11-21T16:56:33;7.00;99.90
23801;DHT22;12081;48.614;10.226;2023-11-21T16:59:17;7.00;99.90
23801;DHT22;12081;48.614;10.226;2023-11-21T17:02:01;7.00;99.90
23801;DHT22;12081;48.614;10.226;2023-11-21T17:04:46;6.90;99.90
23801;DHT22;12081;48.614;10.226;2023-11-21T17:07:32;6.90;99.90
23801;DHT22;12081;48.614;10.226;2023-11-21T17:10:17;6.90;99.90
23801;DHT22;12081;48.614;10.226;2023-11-21T17:13:04;6.90;99.90
23801;DHT22;12081;48.614;10.226;2023-11-21T17:15:48;6.80;99.90
23801;DHT22;12081;48.614;10.226;2023-11-21T17:18:31;6.80;99.90
23801;DHT22;12081;48.614;10.226;2023-11-21T17:21:15;6.80;99.90
23801;DHT22;12081;48.614;10.226;2023-11-21T17:24:00;6.90;99.90
23801;DHT22;12081;48.614;10.226;2023-11-21T17:26:45;6.80;99.90
23801;DHT22;12081;48.614;10.226;2023-11-21T17:29:29;6.80;99.90
23801;DHT22;12081;48.614;10.226;2023-11-21T17:32:13;6.80;99.90
23801;DHT22;12081;48.614;10.226;2023-11-21T17:34:57;6.80;99.90
23801;DHT22;12081;48.614;10.226;2023-11-21T17:37:44;6.70;99.90
23801;DHT22;12081;48.614;10.226;2023-11-21T17:40:28;6.70;99.90
23801;DHT22;12081;48.614;10.226;2023-11-21T17:43:12;6.60;99.90
23801;DHT22;12081;48.614;10.226;2023-11-21T17:45:57;6.60;99.90
23801;DHT22;12081;48.614;10.226;2023-11-21T17:48:42;8.70;99.90
23801;DHT22;12081;48.614;10.226;2023-11-21T17:51:26;6.60;99.90
23801;DHT22;12081;48.614;10.226;2023-11-21T17:54:10;6.50;99.90
23801;DHT22;12081;48.614;10.226;2023-11-21T17:56:54;6.40;99.90
23801;DHT22;12081;48.614;10.226;2023-11-21T17:59:39;6.40;99.90
23801;DHT22;12081;48.614;10.226;2023-11-21T18:02:23;6.40;99.90
23801;DHT22;12081;48.614;10.226;2023-11-21T18:05:08;6.40;99.90
23801;DHT22;12081;48.614;10.226;2023-11-21T18:07:57;6.30;99.90
23801;DHT22;12081;48.614;10.226;2023-11-21T18:10:41;6.30;99.90
23801;DHT22;12081;48.614;10.226;2023-11-21T18:13:25;6.30;99.90
23801;DHT22;12081;48.614;10.226;2023-11-21T18:16:10;6.20;99.90
23801;DHT22;12081;48.614;10.226;2023-11-21T18:18:54;6.20;99.90
23801;DHT22;12081;48.614;10.226;2023-11-21T18:21:41;6.20;99.90
23801;DHT22;12081;48.614;10.226;2023-11-21T18:24:25;6.60;99.90
23801;DHT22;12081;48.614;10.226;2023-11-21T18:27:10;6.20;99.90
23801;DHT22;12081;48.614;10.226;2023-11-21T18:29:57;6.20;99.90
23801;DHT22;12081;48.614;10.226;2023-11-21T18:32:44;6.10;99.90
23801;DHT22;12081;48.614;10.226;2023-11-21T18:35:28;6.20;99.90
23801;DHT22;12081;48.614;10.226;2023-11-21T18:38:13;6.20;99.90
23801;DHT22;12081;48.614;10.226;2023-11-21T18:40:57;6.20;99.90
23801;DHT22;12081;48.614;10.226;2023-11-21T18:43:41;6.20;99.90
23801;DHT22;12081;48.614;10.226;2023-11-21T18:46:25;6.20;99.90
23801;DHT22;12081;48.614;10.226;2023-11-21T18:49:09;6.20;99.90
23801;DHT22;12081;48.614;10.226;2023-11-21T18:51:53;6.30;99.90
23801;DHT22;12081;48.614;10.226;2023-11-21T18:54:37;6.30;99.90
23801;DHT22;12081;48.614;10.226;2023-11-21T18:57:23;6.30;99.90
23801;DHT22;12081;48.614;10.226;2023-11-21T19:00:08;6.20;99.90
23801;DHT22;12081;48.614;10.226;2023-11-21T19:02:56;6.30;99.90
23801;DHT22;12081;48.614;10.226;2023-11-21T19:05:40;6.30;99.90
23801;DHT22;12081;48.614;10.226;2023-11-21T19:08:24;6.30;99.90
23801;DHT22;12081;48.614;10.226;2023-11-21T19:11:08;6.30;99.90
23801;DHT22;12081;48.614;10.226;2023-11-21T19:13:55;6.30;99.90
23801;DHT22;12081;48.614;10.226;2023-11-21T19:16:39;6.30;99.90
23801;DHT22;12081;48.614;10.226;2023-11-21T19:19:23;6.30;99.90
23801;DHT22;12081;48.614;10.226;2023-11-21T19:22:07;6.30;99.90
23801;DHT22;12081;48.614;10.226;2023-11-21T19:24:51;6.30;99.90
23801;DHT22;12081;48.614;10.226;2023-11-21T19:27:36;6.20;99.90
23801;DHT22;12081;48.614;10.226;2023-11-21T19:30:20;6.30;99.90
23801;DHT22;12081;48.614;10.226;2023-11-21T19:33:04;6.30;99.90
23801;DHT22;12081;48.614;10.226;2023-11-21T19:35:49;6.20;99.90
23801;DHT22;12081;48.614;10.226;2023-11-21T19:38:34;6.20;99.90
23801;DHT22;12081;48.614;10.226;2023-11-21T19:41:21;6.20;99.90
23801;DHT22;12081;48.614;10.226;2023-11-21T19:44:05;6.10;99.90
23801;DHT22;12081;48.614;10.226;2023-11-21T19:46:49;6.10;99.90
23801;DHT22;12081;48.614;10.226;2023-11-21T19:49:33;6.10;99.90
23801;DHT22;12081;48.614;10.226;2023-11-21T19:52:17;6.10;99.90
23801;DHT22;12081;48.614;10.226;2023-11-21T19:55:02;6.10;99.90
23801;DHT22;12081;48.614;10.226;2023-11-21T19:57:47;6.10;99.90
23801;DHT22;12081;48.614;10.226;2023-11-21T20:00:31;6.00;99.90
23801;DHT22;12081;48.614;10.226;2023-11-21T20:03:15;6.00;99.90
23801;DHT22;12081;48.614;10.226;2023-11-21T20:06:02;5.90;99.90
23801;DHT22;12081;48.614;10.226;2023-11-21T20:08:46;5.90;99.90
23801;DHT22;12081;48.614;10.226;2023-11-21T20:11:35;5.80;99.90
23801;DHT22;12081;48.614;10.226;2023-11-21T20:14:19;5.80;99.90
23801;DHT22;12081;48.614;10.226;2023-11-21T20:17:03;5.80;99.90
23801;DHT22;12081;48.614;10.226;2023-11-21T20:19:47;5.90;99.90
23801;DHT22;12081;48.614;10.226;2023-11-21T20:22:31;6.90;99.90
23801;DHT22;12081;48.614;10.226;2023-11-21T20:25:19;5.90;99.90
23801;DHT22;12081;48.614;10.226;2023-11-21T20:28:04;5.90;99.90